createdAt,value
2024-03-08T00:01:35.921Z,27.80
2024-03-08T00:04:04.082Z,31.80
2024-03-08T00:06:32.180Z,27.60
2024-03-08T00:09:00.366Z,27.75
2024-03-08T00:11:28.639Z,26.00
2024-03-08T00:13:56.761Z,32.00
2024-03-08T00:16:25.364Z,27.40
2024-03-08T00:18:54.915Z,30.00
2024-03-08T00:21:23.069Z,27.80
2024-03-08T00:23:51.224Z,26.20
2024-03-08T00:26:19.380Z,28.80
2024-03-08T00:28:47.994Z,33.00
2024-03-08T00:31:17.020Z,31.00
2024-03-08T00:33:45.239Z,30.00
2024-03-08T00:36:14.771Z,29.60
2024-03-08T00:38:43.281Z,30.40
2024-03-08T00:41:11.381Z,30.50
2024-03-08T00:43:39.498Z,30.25
2024-03-08T00:46:07.569Z,27.60
2024-03-08T00:48:35.849Z,27.80
2024-03-08T00:51:04.060Z,22.00
2024-03-08T00:53:33.586Z,23.00
2024-03-08T00:56:01.657Z,27.50
2024-03-08T00:58:30.345Z,25.00
2024-03-08T01:00:58.683Z,26.40
2024-03-08T01:03:26.892Z,30.00
2024-03-08T01:05:55.297Z,30.75
2024-03-08T01:08:24.489Z,23.80
2024-03-08T01:10:54.063Z,26.40
2024-03-08T01:13:22.602Z,31.00
2024-03-08T01:15:50.829Z,31.00
2024-03-08T01:18:19.094Z,27.40
2024-03-08T01:20:47.618Z,27.00
2024-03-08T01:23:15.801Z,28.40
2024-03-08T01:25:45.187Z,31.50
2024-03-08T01:28:14.736Z,31.00
2024-03-08T01:30:44.104Z,26.25
2024-03-08T01:33:12.285Z,32.00
2024-03-08T01:35:42.644Z,26.40
2024-03-08T01:38:10.799Z,27.00
2024-03-08T01:40:38.929Z,26.00
2024-03-08T01:43:20.794Z,29.33
2024-03-08T01:45:49.032Z,29.00
2024-03-08T01:48:17.998Z,25.40
2024-03-08T01:50:46.512Z,30.50
2024-03-08T01:53:16.561Z,29.40
2024-03-08T01:55:44.693Z,24.80
2024-03-08T01:58:13.355Z,30.80
2024-03-08T02:00:42.941Z,30.50
2024-03-08T02:03:11.698Z,30.20
2024-03-08T02:05:41.594Z,27.20
2024-03-08T02:08:13.741Z,29.00
2024-03-08T02:10:42.904Z,23.00
2024-03-08T02:13:10.995Z,27.00
2024-03-08T02:15:56.211Z,31.00
2024-03-08T02:18:25.147Z,25.50
2024-03-08T02:20:54.973Z,29.75
2024-03-08T02:23:23.097Z,26.25
2024-03-08T02:25:51.280Z,26.00
2024-03-08T02:28:19.799Z,29.60
2024-03-08T02:30:48.948Z,33.00
2024-03-08T02:33:18.823Z,32.00
2024-03-08T02:35:47.819Z,31.00
2024-03-08T02:38:18.288Z,34.75
2024-03-08T02:40:46.392Z,31.00
2024-03-08T02:43:15.688Z,26.50
2024-03-08T02:45:45.134Z,27.80
2024-03-08T02:48:13.580Z,28.75
2024-03-08T02:50:43.768Z,29.50
2024-03-08T02:53:12.366Z,27.20
2024-03-08T02:55:42.291Z,30.00
2024-03-08T02:58:11.716Z,28.00
2024-03-08T03:00:41.841Z,31.00
2024-03-08T03:03:10.167Z,32.40
2024-03-08T03:05:38.469Z,29.20
2024-03-08T03:08:10.909Z,27.00
2024-03-08T03:10:39.365Z,33.25
2024-03-08T03:13:10.017Z,26.00
2024-03-08T03:15:38.333Z,32.75
2024-03-08T03:18:09.685Z,26.80
2024-03-08T03:20:42.170Z,33.00
2024-03-08T03:23:10.904Z,33.00
2024-03-08T03:25:42.174Z,25.60
2024-03-08T03:28:12.527Z,30.00
2024-03-08T03:30:40.925Z,28.60
2024-03-08T03:33:09.538Z,32.75
2024-03-08T03:35:39.043Z,31.00
2024-03-08T03:38:10.068Z,28.20
2024-03-08T03:40:39.658Z,28.40
2024-03-08T03:43:08.530Z,32.00
2024-03-08T03:45:38.708Z,28.50
2024-03-08T03:48:11.129Z,32.25
2024-03-08T03:50:40.553Z,31.60
2024-03-08T03:53:09.925Z,33.50
2024-03-08T03:55:40.645Z,33.50
2024-03-08T03:58:11.664Z,29.25
2024-03-08T04:00:41.864Z,35.60
2024-03-08T04:03:10.577Z,38.40
2024-03-08T04:05:39.120Z,27.00
2024-03-08T04:08:07.528Z,29.20
2024-03-08T04:10:35.738Z,31.80
2024-03-08T04:13:05.158Z,28.00
2024-03-08T04:15:33.422Z,28.60
2024-03-08T04:18:03.563Z,34.00
2024-03-08T04:20:31.980Z,27.00
2024-03-08T04:23:00.172Z,30.60
2024-03-08T04:25:28.491Z,37.00
2024-03-08T04:27:56.638Z,28.50
2024-03-08T04:30:25.581Z,31.40
2024-03-08T04:32:54.253Z,30.75
2024-03-08T04:35:23.878Z,31.50
2024-03-08T04:37:51.963Z,34.00
2024-03-08T04:40:20.468Z,29.00
2024-03-08T04:42:50.025Z,28.00
2024-03-08T04:45:18.348Z,30.50
2024-03-08T04:47:46.501Z,29.00
2024-03-08T04:50:14.825Z,35.60
2024-03-08T04:52:44.285Z,39.20
2024-03-08T04:55:12.430Z,29.60
2024-03-08T04:57:40.535Z,36.25
2024-03-08T05:00:12.539Z,25.00
2024-03-08T05:02:41.077Z,34.20
2024-03-08T05:05:10.409Z,36.00
2024-03-08T05:07:38.716Z,35.75
2024-03-08T05:10:10.381Z,33.00
2024-03-08T05:12:39.876Z,29.00
2024-03-08T05:15:09.398Z,35.75
2024-03-08T05:17:37.617Z,35.00
2024-03-08T05:20:09.279Z,34.00
2024-03-08T05:22:37.428Z,39.00
2024-03-08T05:25:06.228Z,31.50
2024-03-08T05:27:35.706Z,32.80
2024-03-08T05:30:05.166Z,35.00
2024-03-08T05:32:34.016Z,40.00
2024-03-08T05:35:02.213Z,39.00
2024-03-08T05:37:32.741Z,39.00
2024-03-08T05:40:00.888Z,33.80
2024-03-08T05:42:29.573Z,37.75
2024-03-08T05:45:00.168Z,32.60
2024-03-08T05:47:31.363Z,37.40
2024-03-08T05:50:00.337Z,30.50
2024-03-08T05:52:28.465Z,40.25
2024-03-08T05:54:56.606Z,34.20
2024-03-08T05:57:25.283Z,39.40
2024-03-08T05:59:53.480Z,40.25
2024-03-08T06:02:22.933Z,39.20
2024-03-08T06:04:51.079Z,28.00
2024-03-08T06:07:19.190Z,32.00
2024-03-08T06:09:49.341Z,35.00
2024-03-08T06:12:20.086Z,31.60
2024-03-08T06:14:48.403Z,39.00
2024-03-08T06:17:16.552Z,36.00
2024-03-08T06:19:46.017Z,40.00
2024-03-08T06:22:15.040Z,36.75
2024-03-08T06:24:43.121Z,28.80
2024-03-08T06:27:11.273Z,34.50
2024-03-08T06:29:39.416Z,33.00
2024-03-08T06:32:08.205Z,30.00
2024-03-08T06:34:36.680Z,36.00
2024-03-08T06:37:06.253Z,41.75
2024-03-08T06:39:35.533Z,40.00
2024-03-08T06:42:03.777Z,34.80
2024-03-08T06:44:31.966Z,40.00
2024-03-08T06:47:01.068Z,30.00
2024-03-08T06:49:29.338Z,34.40
2024-03-08T06:51:58.256Z,35.40
2024-03-08T06:54:27.748Z,37.60
2024-03-08T06:56:55.902Z,38.50
2024-03-08T06:59:24.034Z,34.00
2024-03-08T07:01:52.577Z,34.40
2024-03-08T07:04:21.455Z,35.80
2024-03-08T07:06:51.169Z,35.00
2024-03-08T07:09:19.367Z,39.20
2024-03-08T07:11:52.776Z,36.40
2024-03-08T07:14:22.978Z,39.00
2024-03-08T07:16:51.176Z,30.00
2024-03-08T07:19:20.413Z,36.50
2024-03-08T07:21:49.133Z,36.00
2024-03-08T07:24:39.082Z,38.00
2024-03-08T07:27:08.658Z,38.75
2024-03-08T07:29:37.178Z,38.40
2024-03-08T07:32:19.306Z,35.60
2024-03-08T07:34:47.487Z,37.00
2024-03-08T07:37:15.621Z,36.00
2024-03-08T07:39:44.524Z,32.00
2024-03-08T07:42:14.176Z,34.50
2024-03-08T07:44:42.345Z,31.00
2024-03-08T07:47:10.949Z,31.00
2024-03-08T07:49:39.530Z,37.00
2024-03-08T07:52:08.740Z,39.00
2024-03-08T07:54:37.062Z,36.50
2024-03-08T07:57:05.692Z,31.80
2024-03-08T07:59:35.161Z,34.00
2024-03-08T08:02:03.377Z,33.20
2024-03-08T08:04:31.732Z,34.60
2024-03-08T08:06:59.910Z,38.00
2024-03-08T08:09:35.723Z,37.00
2024-03-08T08:12:04.616Z,35.00
2024-03-08T08:14:34.108Z,34.80
2024-03-08T08:17:05.494Z,30.75
2024-03-08T08:19:34.562Z,35.00
2024-03-08T08:22:03.054Z,35.40
2024-03-08T08:24:31.170Z,33.40
2024-03-08T08:26:59.420Z,27.20
2024-03-08T08:29:27.594Z,27.60
2024-03-08T08:31:57.065Z,34.00
2024-03-08T08:34:27.195Z,27.60
2024-03-08T08:36:55.754Z,32.00
2024-03-08T08:39:23.945Z,32.25
2024-03-08T08:41:53.713Z,31.80
2024-03-08T08:44:22.838Z,31.00
2024-03-08T08:46:53.457Z,34.00
2024-03-08T08:49:25.493Z,24.60
2024-03-08T08:51:55.160Z,28.00
2024-03-08T08:54:26.230Z,26.00
2024-03-08T08:56:54.701Z,27.60
2024-03-08T08:59:24.217Z,26.50
2024-03-08T09:01:55.114Z,25.50
2024-03-08T09:04:24.787Z,29.50
2024-03-08T09:06:52.943Z,25.40
2024-03-08T09:09:21.163Z,23.25
2024-03-08T09:11:50.480Z,24.00
2024-03-08T09:14:18.746Z,28.80
2024-03-08T09:16:48.621Z,23.00
2024-03-08T09:19:16.921Z,21.75
2024-03-08T09:21:46.418Z,29.00
2024-03-08T09:24:21.850Z,24.00
2024-03-08T09:26:49.940Z,26.80
2024-03-08T09:29:18.097Z,20.50
2024-03-08T09:31:47.422Z,29.40
2024-03-08T09:34:20.547Z,24.00
2024-03-08T09:36:53.905Z,28.00
2024-03-08T09:39:25.093Z,20.60
2024-03-08T09:41:56.573Z,21.25
2024-03-08T09:48:31.444Z,21.00
2024-03-08T09:50:59.593Z,22.40
2024-03-08T09:53:27.693Z,28.00
2024-03-08T09:55:57.236Z,21.80
2024-03-08T09:58:55.403Z,27.50
2024-03-08T10:01:23.952Z,24.00
2024-03-08T10:03:52.091Z,23.00
2024-03-08T10:06:24.430Z,26.40
2024-03-08T10:08:53.215Z,27.00
2024-03-08T10:11:22.730Z,26.00
2024-03-08T10:13:51.385Z,24.00
2024-03-08T10:16:20.002Z,30.50
2024-03-08T10:18:48.302Z,25.50
2024-03-08T10:21:18.231Z,26.25
2024-03-08T10:23:46.327Z,26.80
2024-03-08T10:26:15.925Z,20.50
2024-03-08T10:28:46.483Z,22.00
2024-03-08T10:31:17.897Z,26.60
2024-03-08T10:33:47.562Z,23.60
2024-03-08T10:36:16.202Z,19.50
2024-03-08T10:38:49.013Z,23.00
2024-03-08T10:41:18.681Z,23.40
2024-03-08T10:43:58.005Z,20.60
2024-03-08T10:46:32.209Z,21.00
2024-03-08T10:49:00.668Z,22.50
2024-03-08T10:51:29.644Z,22.40
2024-03-08T10:53:57.676Z,22.25
2024-03-08T10:56:28.434Z,19.20
2024-03-08T10:58:58.181Z,21.20
2024-03-08T11:01:27.469Z,22.20
2024-03-08T11:03:57.511Z,18.40
2024-03-08T11:06:31.685Z,24.75
2024-03-08T11:08:59.800Z,21.00
2024-03-08T11:11:36.070Z,19.00
2024-03-08T11:14:07.180Z,21.00
2024-03-08T11:16:45.075Z,21.60
2024-03-08T11:19:26.537Z,18.00
2024-03-08T11:22:01.881Z,17.40
2024-03-08T11:24:30.944Z,17.00
2024-03-08T11:27:00.735Z,31.00
2024-03-08T11:29:41.147Z,21.40
2024-03-08T11:32:13.281Z,16.00
2024-03-08T11:34:44.410Z,15.60
2024-03-08T11:37:16.353Z,25.50
2024-03-08T11:39:49.313Z,17.00
2024-03-08T11:42:18.732Z,19.40
2024-03-08T11:44:49.157Z,22.00
2024-03-08T11:47:18.066Z,20.00
2024-03-08T11:49:48.617Z,19.40
2024-03-08T11:52:17.608Z,22.00
2024-03-08T11:54:51.494Z,28.00
2024-03-08T11:57:20.042Z,20.20
2024-03-08T11:59:57.008Z,19.00
2024-03-08T12:02:25.972Z,17.80
2024-03-08T12:04:58.742Z,25.50
2024-03-08T12:07:26.932Z,19.75
2024-03-08T12:10:18.555Z,13.50
2024-03-08T12:12:47.953Z,19.00
2024-03-08T12:15:19.259Z,16.00
2024-03-08T12:17:49.290Z,16.25
2024-03-08T12:20:18.911Z,19.75
2024-03-08T12:22:46.329Z,22.80
2024-03-08T12:25:14.980Z,18.00
2024-03-08T12:27:43.719Z,16.00
2024-03-08T12:30:22.151Z,14.50
2024-03-08T12:32:59.044Z,17.00
2024-03-08T12:35:28.114Z,24.40
2024-03-08T12:37:56.809Z,16.50
2024-03-08T12:40:28.184Z,20.20
2024-03-08T12:42:57.063Z,23.20
2024-03-08T12:45:26.637Z,16.50
2024-03-08T12:47:55.365Z,20.20
2024-03-08T12:50:23.481Z,18.00
2024-03-08T12:52:54.044Z,18.33
2024-03-08T12:55:22.415Z,17.00
2024-03-08T12:57:50.854Z,16.80
2024-03-08T13:00:21.143Z,15.25
2024-03-08T13:02:52.247Z,24.25
2024-03-08T13:05:21.238Z,18.00
2024-03-08T13:07:50.294Z,19.40
2024-03-08T13:10:21.513Z,16.00
2024-03-08T13:12:52.968Z,20.20
2024-03-08T13:15:22.447Z,14.60
2024-03-08T13:17:52.005Z,16.50
2024-03-08T13:20:27.795Z,14.50
2024-03-08T13:23:02.954Z,15.50
2024-03-08T13:25:31.226Z,14.50
2024-03-08T13:28:01.732Z,15.50
2024-03-08T13:30:30.458Z,16.00
2024-03-08T13:32:59.891Z,15.00
2024-03-08T13:35:29.435Z,14.00
2024-03-08T13:37:57.680Z,15.75
2024-03-08T13:40:25.903Z,15.00
2024-03-08T13:42:54.162Z,14.00
2024-03-08T13:45:25.438Z,14.60
2024-03-08T13:47:55.658Z,18.20
2024-03-08T13:50:27.106Z,15.25
2024-03-08T13:52:56.200Z,19.00
2024-03-08T13:55:26.926Z,16.75
2024-03-08T13:57:55.413Z,16.25
2024-03-08T14:00:26.209Z,16.00
2024-03-08T14:02:55.230Z,18.00
2024-03-08T14:05:23.620Z,13.00
2024-03-08T14:07:55.827Z,20.80
2024-03-08T14:10:24.988Z,22.00
2024-03-08T14:12:53.254Z,21.00
2024-03-08T14:15:21.726Z,22.60
2024-03-08T14:17:55.085Z,20.20
2024-03-08T14:20:26.742Z,19.00
2024-03-08T14:22:57.408Z,23.00
2024-03-08T14:25:25.909Z,19.00
2024-03-08T14:27:55.491Z,18.60
2024-03-08T14:30:35.940Z,16.80
2024-03-08T14:33:04.376Z,13.75
2024-03-08T14:35:32.517Z,17.60
2024-03-08T14:38:02.507Z,17.60
2024-03-08T14:40:31.682Z,19.20
2024-03-08T14:43:00.510Z,21.80
2024-03-08T14:45:29.385Z,16.60
2024-03-08T14:47:57.677Z,23.80
2024-03-08T14:50:26.640Z,23.25
2024-03-08T14:52:54.926Z,23.50
2024-03-08T14:55:24.471Z,20.20
2024-03-08T14:57:52.994Z,23.00
2024-03-08T15:00:28.002Z,24.80
2024-03-08T15:02:56.410Z,23.75
2024-03-08T15:05:28.170Z,21.20
2024-03-08T15:07:56.567Z,19.00
2024-03-08T15:10:27.282Z,17.00
2024-03-08T15:12:57.395Z,25.00
2024-03-08T15:15:26.440Z,21.00
2024-03-08T15:17:56.722Z,23.00
2024-03-08T15:20:30.169Z,20.40
2024-03-08T15:23:00.048Z,18.60
2024-03-08T15:25:30.764Z,19.25
2024-03-08T15:27:59.696Z,21.67
2024-03-08T15:30:30.201Z,23.67
2024-03-08T15:32:58.466Z,24.50
2024-03-08T15:35:27.232Z,22.00
2024-03-08T15:37:56.630Z,22.50
2024-03-08T15:40:25.029Z,23.25
2024-03-08T15:42:58.997Z,21.00
2024-03-08T15:45:28.060Z,25.60
2024-03-08T15:47:56.376Z,22.60
2024-03-08T15:50:25.096Z,24.25
2024-03-08T15:52:54.474Z,24.00
2024-03-08T15:55:24.738Z,20.00
2024-03-08T15:57:53.332Z,22.00
2024-03-08T16:00:34.902Z,24.00
2024-03-08T16:03:07.626Z,21.00
2024-03-08T16:05:36.077Z,23.25
2024-03-08T16:08:04.871Z,22.00
2024-03-08T16:10:34.752Z,22.00
2024-03-08T16:13:04.918Z,19.20
2024-03-08T16:15:36.395Z,17.00
2024-03-08T16:18:06.414Z,22.00
2024-03-08T16:20:34.983Z,20.20
2024-03-08T16:23:04.220Z,20.40
2024-03-08T16:25:32.526Z,20.00
2024-03-08T16:28:00.702Z,21.20
2024-03-08T16:30:33.261Z,19.40
2024-03-08T16:33:02.753Z,21.50
2024-03-08T16:35:31.398Z,23.25
2024-03-08T16:37:59.500Z,23.50
2024-03-08T16:40:28.985Z,23.00
2024-03-08T16:42:57.213Z,21.40
2024-03-08T16:45:28.017Z,22.40
2024-03-08T16:47:56.201Z,25.25
2024-03-08T16:50:28.164Z,20.00
2024-03-08T16:52:58.780Z,19.00
2024-03-08T16:55:31.145Z,22.50
2024-03-08T16:57:59.899Z,28.40
2024-03-08T17:00:29.736Z,22.00
2024-03-08T17:02:59.026Z,24.00
2024-03-08T17:05:29.489Z,22.50
2024-03-08T17:07:58.662Z,20.20
2024-03-08T17:10:28.568Z,25.00
2024-03-08T17:12:57.799Z,27.25
2024-03-08T17:15:25.851Z,21.40
2024-03-08T17:17:55.257Z,19.75
2024-03-08T17:20:23.788Z,19.80
2024-03-08T17:22:54.225Z,30.00
2024-03-08T17:25:22.586Z,30.00
2024-03-08T17:27:52.172Z,28.00
2024-03-08T17:30:24.930Z,27.00
2024-03-08T17:32:56.360Z,24.40
2024-03-08T17:35:27.229Z,27.00
2024-03-08T17:37:58.394Z,32.75
2024-03-08T17:40:27.743Z,35.00
2024-03-08T17:42:56.755Z,25.60
2024-03-08T17:45:25.651Z,26.40
2024-03-08T17:47:54.137Z,30.80
2024-03-08T17:50:22.451Z,29.00
2024-03-08T17:52:51.908Z,28.00
2024-03-08T17:55:21.847Z,28.25
2024-03-08T17:57:50.595Z,24.60
2024-03-08T18:00:27.035Z,27.00
2024-03-08T18:02:55.512Z,30.20
2024-03-08T18:05:31.171Z,31.80
2024-03-08T18:07:59.658Z,29.50
2024-03-08T18:10:29.749Z,29.00
2024-03-08T18:12:59.552Z,29.50
2024-03-08T18:15:27.811Z,29.00
2024-03-08T18:17:56.522Z,28.40
2024-03-08T18:20:30.243Z,28.00
2024-03-08T18:22:58.996Z,33.80
2024-03-08T18:25:29.768Z,27.75
2024-03-08T18:27:58.919Z,31.80
2024-03-08T18:30:27.084Z,33.00
2024-03-08T18:32:55.216Z,31.60
2024-03-08T18:35:23.529Z,36.00
2024-03-08T18:37:51.903Z,33.00
2024-03-08T18:40:23.354Z,28.00
2024-03-08T18:42:53.388Z,32.75
2024-03-08T18:45:22.830Z,23.00
2024-03-08T18:47:52.143Z,29.80
2024-03-08T18:50:21.734Z,30.00
2024-03-08T18:52:50.143Z,32.00
2024-03-08T18:55:22.795Z,28.20
2024-03-08T18:57:53.768Z,31.00
2024-03-08T19:00:28.425Z,28.50
2024-03-08T19:02:58.127Z,30.25
2024-03-08T19:05:26.410Z,31.50
2024-03-08T19:07:55.115Z,27.00
2024-03-08T19:10:24.172Z,27.80
2024-03-08T19:12:54.186Z,30.00
2024-03-08T19:15:22.805Z,25.40
2024-03-08T19:17:51.951Z,28.00
2024-03-08T19:20:20.274Z,33.00
2024-03-08T19:22:48.924Z,33.00
2024-03-08T19:25:18.922Z,37.00
2024-03-08T19:27:48.086Z,33.00
2024-03-08T19:30:18.570Z,28.75
2024-03-08T19:32:47.003Z,22.40
2024-03-08T19:35:19.521Z,28.00
2024-03-08T19:37:48.097Z,26.50
2024-03-08T19:40:21.483Z,27.00
2024-03-08T19:42:50.358Z,26.00
2024-03-08T19:45:19.995Z,28.40
2024-03-08T19:47:48.222Z,24.20
2024-03-08T19:50:17.036Z,26.00
2024-03-08T19:52:46.441Z,27.00
2024-03-08T19:55:15.598Z,32.50
2024-03-08T19:57:48.656Z,33.75
2024-03-08T20:00:21.798Z,29.33
2024-03-08T20:02:50.536Z,32.60
2024-03-08T20:05:22.287Z,28.25
2024-03-08T20:07:53.624Z,28.00
2024-03-08T20:10:22.120Z,27.75
2024-03-08T20:12:50.221Z,28.00
2024-03-08T20:15:19.783Z,23.60
2024-03-08T20:17:48.719Z,19.80
2024-03-08T20:20:17.165Z,25.40
2024-03-08T20:22:46.712Z,22.00
2024-03-08T20:25:18.400Z,25.00
2024-03-08T20:27:50.569Z,26.75
2024-03-08T20:30:23.545Z,26.50
2024-03-08T20:32:53.799Z,27.40
2024-03-08T20:35:22.125Z,25.60
2024-03-08T20:37:50.357Z,31.67
2024-03-08T20:40:24.853Z,26.00
2024-03-08T20:42:53.385Z,25.60
2024-03-08T20:45:25.976Z,29.40
2024-03-08T20:47:55.176Z,28.50
2024-03-08T20:50:25.104Z,26.00
2024-03-08T20:52:54.474Z,36.00
2024-03-08T20:55:24.864Z,30.60
2024-03-08T20:57:54.430Z,28.60
2024-03-08T21:00:41.335Z,26.00
2024-03-08T21:03:14.653Z,26.80
2024-03-08T21:05:43.764Z,31.00
2024-03-08T21:08:13.693Z,28.00
2024-03-08T21:10:42.816Z,29.00
2024-03-08T21:13:12.051Z,25.60
2024-03-08T21:15:42.207Z,31.00
2024-03-08T21:18:10.895Z,27.00
2024-03-08T21:20:39.598Z,33.00
2024-03-08T21:23:07.720Z,28.25
2024-03-08T21:25:37.433Z,29.25
2024-03-08T21:28:07.681Z,27.40
2024-03-08T21:30:36.088Z,24.00
2024-03-08T21:33:07.339Z,31.20
2024-03-08T21:35:36.440Z,26.00
2024-03-08T21:38:04.767Z,33.00
2024-03-08T21:40:33.163Z,37.00
2024-03-08T21:43:02.047Z,25.00
2024-03-08T21:45:32.576Z,25.60
2024-03-08T21:48:04.088Z,31.33
2024-03-08T21:50:34.996Z,29.00
2024-03-08T21:53:03.786Z,34.00
2024-03-08T21:55:32.741Z,34.80
2024-03-08T21:58:01.201Z,24.80
2024-03-08T22:00:34.001Z,32.00
2024-03-08T22:03:02.475Z,24.50
2024-03-08T22:05:30.834Z,28.20
2024-03-08T22:08:00.405Z,34.60
2024-03-08T22:10:30.600Z,31.75
2024-03-08T22:12:59.007Z,31.50
2024-03-08T22:15:28.297Z,30.40
2024-03-08T22:17:57.724Z,31.50
2024-03-08T22:20:32.756Z,30.00
2024-03-08T22:23:03.924Z,28.00
2024-03-08T22:25:32.953Z,29.20
2024-03-08T22:28:01.104Z,27.50
2024-03-08T22:30:29.449Z,26.50
2024-03-08T22:32:58.533Z,35.40
2024-03-08T22:35:27.107Z,32.00
2024-03-08T22:37:55.896Z,30.25
2024-03-08T22:40:26.511Z,31.75
2024-03-08T22:42:55.299Z,31.00
2024-03-08T22:45:25.193Z,34.80
2024-03-08T22:47:53.809Z,33.00
2024-03-08T22:50:25.881Z,28.50
2024-03-08T22:52:54.456Z,32.20
2024-03-08T22:55:23.764Z,28.50
2024-03-08T22:57:53.340Z,35.40
2024-03-08T23:00:35.417Z,34.50
2024-03-08T23:03:03.508Z,32.00
2024-03-08T23:05:31.726Z,30.50
2024-03-08T23:08:01.505Z,33.25
2024-03-08T23:10:31.149Z,26.80
2024-03-08T23:13:01.001Z,27.20
2024-03-08T23:15:30.046Z,26.20
2024-03-08T23:17:59.830Z,33.75
2024-03-08T23:20:33.392Z,31.00
2024-03-08T23:23:05.426Z,33.20
2024-03-08T23:25:36.022Z,31.00
2024-03-08T23:28:08.338Z,33.00
2024-03-08T23:30:40.713Z,30.40
2024-03-08T23:33:10.324Z,32.20
2024-03-08T23:35:39.844Z,25.00
2024-03-08T23:38:09.043Z,27.80
2024-03-08T23:40:39.213Z,31.00
2024-03-08T23:43:09.384Z,33.80
2024-03-08T23:45:39.489Z,29.50
2024-03-08T23:48:08.775Z,27.00
2024-03-08T23:50:38.606Z,30.40
2024-03-08T23:53:08.542Z,34.75
2024-03-08T23:55:37.778Z,37.75
2024-03-08T23:58:08.041Z,29.50
